sensor_id;sensor_type;location;lat;lon;timestamp;P1;durP1;ratioP1;P2;durP2;ratioP2
77544;SDS011;66672;50.328;7.610;2023-05-10T00:00:33;0.98;;;0.28;;
77544;SDS011;66672;50.328;7.610;2023-05-10T00:02:59;0.40;;;0.15;;
77544;SDS011;66672;50.328;7.610;2023-05-10T00:05:24;0.43;;;0.30;;
77544;SDS011;66672;50.328;7.610;2023-05-10T00:07:49;0.63;;;0.38;;
77544;SDS011;66672;50.328;7.610;2023-05-10T00:10:14;0.43;;;0.20;;
77544;SDS011;66672;50.328;7.610;2023-05-10T00:12:40;1.90;;;0.30;;
77544;SDS011;66672;50.328;7.610;2023-05-10T00:15:05;1.23;;;0.30;;
77544;SDS011;66672;50.328;7.610;2023-05-10T00:17:30;2.05;;;0.55;;
77544;SDS011;66672;50.328;7.610;2023-05-10T00:19:56;0.52;;;0.25;;
77544;SDS011;66672;50.328;7.610;2023-05-10T00:22:21;0.20;;;0.20;;
77544;SDS011;66672;50.328;7.610;2023-05-10T00:24:46;2.10;;;0.40;;
77544;SDS011;66672;50.328;7.610;2023-05-10T00:27:11;2.30;;;0.50;;
77544;SDS011;66672;50.328;7.610;2023-05-10T00:29:36;1.40;;;0.50;;
77544;SDS011;66672;50.328;7.610;2023-05-10T00:32:02;0.95;;;0.30;;
77544;SDS011;66672;50.328;7.610;2023-05-10T00:34:27;0.65;;;0.20;;
77544;SDS011;66672;50.328;7.610;2023-05-10T00:36:52;0.82;;;0.45;;
77544;SDS011;66672;50.328;7.610;2023-05-10T00:39:17;0.40;;;0.30;;
77544;SDS011;66672;50.328;7.610;2023-05-10T00:41:42;1.38;;;0.30;;
77544;SDS011;66672;50.328;7.610;2023-05-10T00:44:08;1.70;;;0.30;;
77544;SDS011;66672;50.328;7.610;2023-05-10T00:46:33;0.75;;;0.30;;
77544;SDS011;66672;50.328;7.610;2023-05-10T00:48:58;0.73;;;0.30;;
77544;SDS011;66672;50.328;7.610;2023-05-10T00:51:24;0.38;;;0.30;;
77544;SDS011;66672;50.328;7.610;2023-05-10T00:53:49;0.32;;;0.32;;
77544;SDS011;66672;50.328;7.610;2023-05-10T00:56:15;0.60;;;0.40;;
77544;SDS011;66672;50.328;7.610;2023-05-10T00:58:40;0.60;;;0.30;;
77544;SDS011;66672;50.328;7.610;2023-05-10T01:01:06;0.63;;;0.38;;
77544;SDS011;66672;50.328;7.610;2023-05-10T01:03:32;0.40;;;0.20;;
77544;SDS011;66672;50.328;7.610;2023-05-10T01:05:57;0.73;;;0.30;;
77544;SDS011;66672;50.328;7.610;2023-05-10T01:08:22;0.50;;;0.30;;
77544;SDS011;66672;50.328;7.610;2023-05-10T01:10:48;0.82;;;0.28;;
77544;SDS011;66672;50.328;7.610;2023-05-10T01:13:16;1.48;;;0.32;;
77544;SDS011;66672;50.328;7.610;2023-05-10T01:15:43;0.63;;;0.32;;
77544;SDS011;66672;50.328;7.610;2023-05-10T01:18:09;1.83;;;0.30;;
77544;SDS011;66672;50.328;7.610;2023-05-10T01:20:37;0.68;;;0.35;;
77544;SDS011;66672;50.328;7.610;2023-05-10T01:31:36;0.93;;;0.40;;
77544;SDS011;66672;50.328;7.610;2023-05-10T01:33:52;0.52;;;0.40;;
77544;SDS011;66672;50.328;7.610;2023-05-10T01:36:24;0.80;;;0.38;;
77544;SDS011;66672;50.328;7.610;2023-05-10T01:38:57;0.93;;;0.30;;
77544;SDS011;66672;50.328;7.610;2023-05-10T01:44:01;1.67;;;0.45;;
77544;SDS011;66672;50.328;7.610;2023-05-10T01:46:28;0.63;;;0.30;;
77544;SDS011;66672;50.328;7.610;2023-05-10T01:48:57;1.23;;;0.28;;
77544;SDS011;66672;50.328;7.610;2023-05-10T01:51:24;1.95;;;0.40;;
77544;SDS011;66672;50.328;7.610;2023-05-10T01:53:51;1.27;;;0.55;;
77544;SDS011;66672;50.328;7.610;2023-05-10T01:56:16;2.13;;;0.50;;
77544;SDS011;66672;50.328;7.610;2023-05-10T01:58:44;0.77;;;0.40;;
77544;SDS011;66672;50.328;7.610;2023-05-10T02:01:11;2.75;;;0.60;;
77544;SDS011;66672;50.328;7.610;2023-05-10T02:03:37;1.00;;;0.60;;
77544;SDS011;66672;50.328;7.610;2023-05-10T02:06:03;0.93;;;0.45;;
77544;SDS011;66672;50.328;7.610;2023-05-10T02:08:29;3.13;;;0.50;;
77544;SDS011;66672;50.328;7.610;2023-05-10T02:10:55;1.52;;;0.40;;
77544;SDS011;66672;50.328;7.610;2023-05-10T02:13:21;2.58;;;0.38;;
77544;SDS011;66672;50.328;7.610;2023-05-10T02:15:48;0.80;;;0.40;;
77544;SDS011;66672;50.328;7.610;2023-05-10T02:18:14;3.38;;;0.55;;
77544;SDS011;66672;50.328;7.610;2023-05-10T02:20:40;3.15;;;0.43;;
77544;SDS011;66672;50.328;7.610;2023-05-10T02:23:06;1.83;;;0.50;;
77544;SDS011;66672;50.328;7.610;2023-05-10T02:25:33;1.35;;;0.70;;
77544;SDS011;66672;50.328;7.610;2023-05-10T02:28:00;1.42;;;0.45;;
77544;SDS011;66672;50.328;7.610;2023-05-10T02:30:26;2.30;;;0.75;;
77544;SDS011;66672;50.328;7.610;2023-05-10T02:32:51;2.42;;;0.90;;
77544;SDS011;66672;50.328;7.610;2023-05-10T02:35:17;1.90;;;0.90;;
77544;SDS011;66672;50.328;7.610;2023-05-10T02:37:42;2.13;;;0.90;;
77544;SDS011;66672;50.328;7.610;2023-05-10T02:40:08;3.35;;;1.02;;
77544;SDS011;66672;50.328;7.610;2023-05-10T02:42:36;3.03;;;0.73;;
77544;SDS011;66672;50.328;7.610;2023-05-10T02:45:03;1.42;;;0.70;;
77544;SDS011;66672;50.328;7.610;2023-05-10T02:47:30;1.13;;;0.70;;
77544;SDS011;66672;50.328;7.610;2023-05-10T02:49:56;2.45;;;0.70;;
77544;SDS011;66672;50.328;7.610;2023-05-10T02:52:23;1.75;;;0.82;;
77544;SDS011;66672;50.328;7.610;2023-05-10T02:54:49;3.50;;;0.93;;
77544;SDS011;66672;50.328;7.610;2023-05-10T02:57:16;2.10;;;0.90;;
77544;SDS011;66672;50.328;7.610;2023-05-10T02:59:44;1.65;;;1.08;;
77544;SDS011;66672;50.328;7.610;2023-05-10T03:02:10;1.95;;;1.10;;
77544;SDS011;66672;50.328;7.610;2023-05-10T03:04:36;1.20;;;0.80;;
77544;SDS011;66672;50.328;7.610;2023-05-10T03:07:01;3.38;;;0.90;;
77544;SDS011;66672;50.328;7.610;2023-05-10T03:09:27;1.30;;;0.88;;
77544;SDS011;66672;50.328;7.610;2023-05-10T03:11:56;2.83;;;1.00;;
77544;SDS011;66672;50.328;7.610;2023-05-10T03:14:34;2.40;;;1.30;;
77544;SDS011;66672;50.328;7.610;2023-05-10T03:17:08;1.75;;;0.80;;
77544;SDS011;66672;50.328;7.610;2023-05-10T03:22:10;4.15;;;1.08;;
77544;SDS011;66672;50.328;7.610;2023-05-10T03:24:35;4.10;;;1.23;;
77544;SDS011;66672;50.328;7.610;2023-05-10T03:27:01;2.95;;;1.20;;
77544;SDS011;66672;50.328;7.610;2023-05-10T03:29:29;2.50;;;1.30;;
77544;SDS011;66672;50.328;7.610;2023-05-10T03:31:57;1.67;;;1.20;;
77544;SDS011;66672;50.328;7.610;2023-05-10T03:34:25;3.70;;;0.95;;
77544;SDS011;66672;50.328;7.610;2023-05-10T03:36:50;3.28;;;1.02;;
77544;SDS011;66672;50.328;7.610;2023-05-10T03:39:15;1.83;;;1.00;;
77544;SDS011;66672;50.328;7.610;2023-05-10T03:41:41;2.03;;;1.02;;
77544;SDS011;66672;50.328;7.610;2023-05-10T03:44:06;1.75;;;1.00;;
77544;SDS011;66672;50.328;7.610;2023-05-10T03:46:31;3.28;;;1.13;;
77544;SDS011;66672;50.328;7.610;2023-05-10T03:48:57;2.83;;;1.38;;
77544;SDS011;66672;50.328;7.610;2023-05-10T03:51:22;6.47;;;1.50;;
77544;SDS011;66672;50.328;7.610;2023-05-10T03:53:47;3.22;;;1.15;;
77544;SDS011;66672;50.328;7.610;2023-05-10T03:56:12;2.30;;;1.40;;
77544;SDS011;66672;50.328;7.610;2023-05-10T03:58:37;4.25;;;1.50;;
77544;SDS011;66672;50.328;7.610;2023-05-10T04:01:03;3.22;;;1.58;;
77544;SDS011;66672;50.328;7.610;2023-05-10T04:03:28;3.88;;;1.40;;
77544;SDS011;66672;50.328;7.610;2023-05-10T04:06:00;4.32;;;1.50;;
77544;SDS011;66672;50.328;7.610;2023-05-10T04:08:25;4.15;;;1.60;;
77544;SDS011;66672;50.328;7.610;2023-05-10T04:10:51;2.92;;;1.65;;
77544;SDS011;66672;50.328;7.610;2023-05-10T04:13:16;2.45;;;1.33;;
77544;SDS011;66672;50.328;7.610;2023-05-10T04:15:41;6.30;;;1.35;;
77544;SDS011;66672;50.328;7.610;2023-05-10T04:18:06;3.78;;;1.73;;
77544;SDS011;66672;50.328;7.610;2023-05-10T04:20:32;3.28;;;1.48;;
77544;SDS011;66672;50.328;7.610;2023-05-10T04:22:57;5.10;;;2.25;;
77544;SDS011;66672;50.328;7.610;2023-05-10T04:25:23;2.83;;;1.40;;
77544;SDS011;66672;50.328;7.610;2023-05-10T04:27:48;4.47;;;2.08;;
77544;SDS011;66672;50.328;7.610;2023-05-10T04:30:13;4.35;;;1.63;;
77544;SDS011;66672;50.328;7.610;2023-05-10T04:32:38;3.78;;;1.63;;
77544;SDS011;66672;50.328;7.610;2023-05-10T04:35:04;4.55;;;1.60;;
77544;SDS011;66672;50.328;7.610;2023-05-10T04:37:29;3.10;;;1.42;;
77544;SDS011;66672;50.328;7.610;2023-05-10T04:39:54;7.93;;;2.67;;
77544;SDS011;66672;50.328;7.610;2023-05-10T04:42:20;3.50;;;1.25;;
77544;SDS011;66672;50.328;7.610;2023-05-10T04:44:45;3.30;;;1.90;;
77544;SDS011;66672;50.328;7.610;2023-05-10T04:47:10;3.95;;;1.73;;
77544;SDS011;66672;50.328;7.610;2023-05-10T04:49:36;11.38;;;6.57;;
77544;SDS011;66672;50.328;7.610;2023-05-10T04:52:01;6.90;;;2.25;;
77544;SDS011;66672;50.328;7.610;2023-05-10T04:54:27;4.88;;;2.25;;
77544;SDS011;66672;50.328;7.610;2023-05-10T04:56:52;4.30;;;1.95;;
77544;SDS011;66672;50.328;7.610;2023-05-10T04:59:17;5.00;;;1.92;;
77544;SDS011;66672;50.328;7.610;2023-05-10T05:01:42;4.18;;;1.77;;
77544;SDS011;66672;50.328;7.610;2023-05-10T05:04:08;5.30;;;2.00;;
77544;SDS011;66672;50.328;7.610;2023-05-10T05:06:33;3.58;;;1.88;;
77544;SDS011;66672;50.328;7.610;2023-05-10T05:08:58;3.92;;;1.70;;
77544;SDS011;66672;50.328;7.610;2023-05-10T05:11:23;4.45;;;1.70;;
77544;SDS011;66672;50.328;7.610;2023-05-10T05:13:48;3.10;;;1.48;;
77544;SDS011;66672;50.328;7.610;2023-05-10T05:16:14;3.55;;;1.80;;
77544;SDS011;66672;50.328;7.610;2023-05-10T05:18:39;4.15;;;1.55;;
77544;SDS011;66672;50.328;7.610;2023-05-10T05:21:13;3.67;;;1.40;;
77544;SDS011;66672;50.328;7.610;2023-05-10T05:23:38;4.15;;;2.08;;
77544;SDS011;66672;50.328;7.610;2023-05-10T05:26:03;4.38;;;1.70;;
77544;SDS011;66672;50.328;7.610;2023-05-10T05:28:28;4.70;;;1.40;;
77544;SDS011;66672;50.328;7.610;2023-05-10T05:30:57;3.70;;;1.63;;
77544;SDS011;66672;50.328;7.610;2023-05-10T05:33:22;3.30;;;1.42;;
77544;SDS011;66672;50.328;7.610;2023-05-10T05:35:48;5.95;;;1.58;;
77544;SDS011;66672;50.328;7.610;2023-05-10T05:38:15;4.28;;;1.45;;
77544;SDS011;66672;50.328;7.610;2023-05-10T05:40:41;4.47;;;1.75;;
77544;SDS011;66672;50.328;7.610;2023-05-10T05:43:06;3.03;;;1.60;;
77544;SDS011;66672;50.328;7.610;2023-05-10T05:45:31;3.15;;;1.40;;
77544;SDS011;66672;50.328;7.610;2023-05-10T05:47:56;4.43;;;1.80;;
77544;SDS011;66672;50.328;7.610;2023-05-10T05:50:21;2.65;;;1.13;;
77544;SDS011;66672;50.328;7.610;2023-05-10T05:52:47;3.05;;;1.60;;
77544;SDS011;66672;50.328;7.610;2023-05-10T05:55:12;3.22;;;1.35;;
77544;SDS011;66672;50.328;7.610;2023-05-10T05:57:37;5.25;;;1.35;;
77544;SDS011;66672;50.328;7.610;2023-05-10T06:00:03;3.08;;;1.48;;
77544;SDS011;66672;50.328;7.610;2023-05-10T06:02:29;3.13;;;1.90;;
77544;SDS011;66672;50.328;7.610;2023-05-10T06:04:54;2.88;;;1.42;;
77544;SDS011;66672;50.328;7.610;2023-05-10T06:07:19;5.07;;;1.50;;
77544;SDS011;66672;50.328;7.610;2023-05-10T06:09:45;4.90;;;1.40;;
77544;SDS011;66672;50.328;7.610;2023-05-10T06:12:10;3.55;;;1.45;;
77544;SDS011;66672;50.328;7.610;2023-05-10T06:14:36;3.03;;;1.38;;
77544;SDS011;66672;50.328;7.610;2023-05-10T06:17:01;3.10;;;1.83;;
77544;SDS011;66672;50.328;7.610;2023-05-10T06:19:28;3.35;;;1.83;;
77544;SDS011;66672;50.328;7.610;2023-05-10T06:21:54;3.20;;;1.50;;
77544;SDS011;66672;50.328;7.610;2023-05-10T06:24:19;4.28;;;1.85;;
77544;SDS011;66672;50.328;7.610;2023-05-10T06:26:44;4.05;;;2.00;;
77544;SDS011;66672;50.328;7.610;2023-05-10T06:29:10;4.75;;;1.42;;
77544;SDS011;66672;50.328;7.610;2023-05-10T06:31:35;4.68;;;1.73;;
77544;SDS011;66672;50.328;7.610;2023-05-10T06:34:00;4.85;;;1.63;;
77544;SDS011;66672;50.328;7.610;2023-05-10T06:36:25;4.47;;;1.42;;
77544;SDS011;66672;50.328;7.610;2023-05-10T06:38:52;2.88;;;1.63;;
77544;SDS011;66672;50.328;7.610;2023-05-10T06:41:17;5.38;;;2.00;;
77544;SDS011;66672;50.328;7.610;2023-05-10T06:43:42;4.60;;;1.60;;
77544;SDS011;66672;50.328;7.610;2023-05-10T06:46:08;5.57;;;1.70;;
77544;SDS011;66672;50.328;7.610;2023-05-10T06:48:33;2.78;;;1.45;;
77544;SDS011;66672;50.328;7.610;2023-05-10T06:50:59;3.45;;;1.40;;
77544;SDS011;66672;50.328;7.610;2023-05-10T06:53:24;4.78;;;1.63;;
77544;SDS011;66672;50.328;7.610;2023-05-10T06:55:49;3.95;;;1.70;;
77544;SDS011;66672;50.328;7.610;2023-05-10T06:58:15;5.20;;;1.70;;
77544;SDS011;66672;50.328;7.610;2023-05-10T07:00:40;5.25;;;1.85;;
77544;SDS011;66672;50.328;7.610;2023-05-10T07:03:07;4.70;;;2.00;;
77544;SDS011;66672;50.328;7.610;2023-05-10T07:05:32;4.10;;;1.75;;
77544;SDS011;66672;50.328;7.610;2023-05-10T07:07:58;5.13;;;1.90;;
77544;SDS011;66672;50.328;7.610;2023-05-10T07:10:23;5.13;;;2.20;;
77544;SDS011;66672;50.328;7.610;2023-05-10T07:12:48;6.03;;;2.25;;
77544;SDS011;66672;50.328;7.610;2023-05-10T07:15:13;6.78;;;2.08;;
77544;SDS011;66672;50.328;7.610;2023-05-10T07:17:39;5.00;;;2.00;;
77544;SDS011;66672;50.328;7.610;2023-05-10T07:20:04;3.47;;;1.83;;
77544;SDS011;66672;50.328;7.610;2023-05-10T07:22:30;5.15;;;2.10;;
77544;SDS011;66672;50.328;7.610;2023-05-10T07:24:55;5.05;;;2.08;;
77544;SDS011;66672;50.328;7.610;2023-05-10T07:27:20;5.50;;;2.00;;
77544;SDS011;66672;50.328;7.610;2023-05-10T07:29:45;5.13;;;1.77;;
77544;SDS011;66672;50.328;7.610;2023-05-10T07:32:10;4.63;;;1.92;;
77544;SDS011;66672;50.328;7.610;2023-05-10T07:34:36;3.15;;;1.75;;
77544;SDS011;66672;50.328;7.610;2023-05-10T07:37:01;6.72;;;2.00;;
77544;SDS011;66672;50.328;7.610;2023-05-10T07:39:26;4.78;;;1.95;;
77544;SDS011;66672;50.328;7.610;2023-05-10T07:41:52;7.30;;;2.63;;
77544;SDS011;66672;50.328;7.610;2023-05-10T07:44:17;5.50;;;2.15;;
77544;SDS011;66672;50.328;7.610;2023-05-10T07:46:45;4.15;;;2.00;;
77544;SDS011;66672;50.328;7.610;2023-05-10T07:49:11;8.82;;;2.60;;
77544;SDS011;66672;50.328;7.610;2023-05-10T07:51:36;4.78;;;2.30;;
77544;SDS011;66672;50.328;7.610;2023-05-10T07:54:01;5.65;;;1.85;;
77544;SDS011;66672;50.328;7.610;2023-05-10T07:56:28;4.53;;;1.92;;
77544;SDS011;66672;50.328;7.610;2023-05-10T07:58:57;5.43;;;2.10;;
77544;SDS011;66672;50.328;7.610;2023-05-10T08:01:22;8.10;;;2.70;;
77544;SDS011;66672;50.328;7.610;2023-05-10T08:03:48;5.45;;;2.53;;
77544;SDS011;66672;50.328;7.610;2023-05-10T08:06:14;6.10;;;2.15;;
77544;SDS011;66672;50.328;7.610;2023-05-10T08:08:40;6.90;;;2.15;;
77544;SDS011;66672;50.328;7.610;2023-05-10T08:11:05;6.43;;;2.30;;
77544;SDS011;66672;50.328;7.610;2023-05-10T08:13:30;6.85;;;2.13;;
77544;SDS011;66672;50.328;7.610;2023-05-10T08:15:56;5.13;;;1.95;;
77544;SDS011;66672;50.328;7.610;2023-05-10T08:18:22;7.28;;;2.10;;
77544;SDS011;66672;50.328;7.610;2023-05-10T08:20:47;4.28;;;2.10;;
77544;SDS011;66672;50.328;7.610;2023-05-10T08:23:12;4.80;;;1.80;;
77544;SDS011;66672;50.328;7.610;2023-05-10T08:25:38;4.38;;;2.08;;
77544;SDS011;66672;50.328;7.610;2023-05-10T08:28:03;6.88;;;2.20;;
77544;SDS011;66672;50.328;7.610;2023-05-10T08:30:28;5.07;;;1.90;;
77544;SDS011;66672;50.328;7.610;2023-05-10T08:32:53;3.47;;;1.73;;
77544;SDS011;66672;50.328;7.610;2023-05-10T08:35:19;3.97;;;1.98;;
77544;SDS011;66672;50.328;7.610;2023-05-10T08:37:44;7.90;;;2.05;;
77544;SDS011;66672;50.328;7.610;2023-05-10T08:40:10;6.38;;;1.90;;
77544;SDS011;66672;50.328;7.610;2023-05-10T08:42:36;5.57;;;2.10;;
77544;SDS011;66672;50.328;7.610;2023-05-10T08:45:05;4.35;;;2.28;;
77544;SDS011;66672;50.328;7.610;2023-05-10T08:47:31;2.70;;;1.42;;
77544;SDS011;66672;50.328;7.610;2023-05-10T08:49:56;3.60;;;1.60;;
77544;SDS011;66672;50.328;7.610;2023-05-10T08:52:23;6.05;;;1.83;;
77544;SDS011;66672;50.328;7.610;2023-05-10T08:54:49;6.00;;;1.95;;
77544;SDS011;66672;50.328;7.610;2023-05-10T08:57:15;3.80;;;1.73;;
77544;SDS011;66672;50.328;7.610;2023-05-10T08:59:40;5.55;;;1.83;;
77544;SDS011;66672;50.328;7.610;2023-05-10T09:02:06;4.90;;;1.90;;
77544;SDS011;66672;50.328;7.610;2023-05-10T09:04:31;5.47;;;1.90;;
77544;SDS011;66672;50.328;7.610;2023-05-10T09:06:56;4.25;;;1.90;;
77544;SDS011;66672;50.328;7.610;2023-05-10T09:09:21;4.85;;;1.52;;
77544;SDS011;66672;50.328;7.610;2023-05-10T09:11:48;2.72;;;1.27;;
77544;SDS011;66672;50.328;7.610;2023-05-10T09:14:13;3.25;;;1.45;;
77544;SDS011;66672;50.328;7.610;2023-05-10T09:16:40;3.88;;;1.20;;
77544;SDS011;66672;50.328;7.610;2023-05-10T09:19:05;3.60;;;1.50;;
77544;SDS011;66672;50.328;7.610;2023-05-10T09:21:31;2.92;;;1.17;;
77544;SDS011;66672;50.328;7.610;2023-05-10T09:23:57;2.13;;;1.23;;
77544;SDS011;66672;50.328;7.610;2023-05-10T09:26:27;1.48;;;0.73;;
77544;SDS011;66672;50.328;7.610;2023-05-10T09:28:53;3.65;;;0.85;;
77544;SDS011;66672;50.328;7.610;2023-05-10T09:31:18;3.45;;;0.93;;
77544;SDS011;66672;50.328;7.610;2023-05-10T09:33:46;1.10;;;0.50;;
77544;SDS011;66672;50.328;7.610;2023-05-10T09:36:12;2.70;;;0.57;;
77544;SDS011;66672;50.328;7.610;2023-05-10T09:38:50;1.00;;;0.43;;
77544;SDS011;66672;50.328;7.610;2023-05-10T09:41:17;2.13;;;0.60;;
77544;SDS011;66672;50.328;7.610;2023-05-10T09:43:43;1.52;;;0.43;;
77544;SDS011;66672;50.328;7.610;2023-05-10T09:46:08;1.88;;;0.38;;
77544;SDS011;66672;50.328;7.610;2023-05-10T09:48:33;0.43;;;0.40;;
77544;SDS011;66672;50.328;7.610;2023-05-10T09:50:59;2.72;;;0.50;;
77544;SDS011;66672;50.328;7.610;2023-05-10T09:53:24;1.33;;;0.52;;
77544;SDS011;66672;50.328;7.610;2023-05-10T09:55:49;2.17;;;0.55;;
77544;SDS011;66672;50.328;7.610;2023-05-10T09:58:15;2.40;;;0.50;;
77544;SDS011;66672;50.328;7.610;2023-05-10T10:00:41;0.75;;;0.35;;
77544;SDS011;66672;50.328;7.610;2023-05-10T10:03:12;1.58;;;0.57;;
77544;SDS011;66672;50.328;7.610;2023-05-10T10:05:38;1.45;;;0.40;;
77544;SDS011;66672;50.328;7.610;2023-05-10T10:08:05;3.22;;;0.40;;
77544;SDS011;66672;50.328;7.610;2023-05-10T10:10:31;2.65;;;0.57;;
77544;SDS011;66672;50.328;7.610;2023-05-10T10:12:56;1.85;;;0.50;;
77544;SDS011;66672;50.328;7.610;2023-05-10T10:15:22;1.73;;;0.43;;
77544;SDS011;66672;50.328;7.610;2023-05-10T10:17:48;3.40;;;0.63;;
77544;SDS011;66672;50.328;7.610;2023-05-10T10:20:13;2.05;;;0.60;;
77544;SDS011;66672;50.328;7.610;2023-05-10T10:22:39;1.55;;;0.50;;
77544;SDS011;66672;50.328;7.610;2023-05-10T10:25:04;0.90;;;0.45;;
77544;SDS011;66672;50.328;7.610;2023-05-10T10:35:29;0.70;;;0.38;;
77544;SDS011;66672;50.328;7.610;2023-05-10T10:37:54;1.48;;;0.50;;
77544;SDS011;66672;50.328;7.610;2023-05-10T10:40:23;1.35;;;0.30;;
77544;SDS011;66672;50.328;7.610;2023-05-10T10:42:48;2.78;;;0.68;;
77544;SDS011;66672;50.328;7.610;2023-05-10T10:45:15;0.68;;;0.40;;
77544;SDS011;66672;50.328;7.610;2023-05-10T10:47:40;0.60;;;0.50;;
77544;SDS011;66672;50.328;7.610;2023-05-10T10:50:06;2.05;;;0.50;;
77544;SDS011;66672;50.328;7.610;2023-05-10T10:55:10;1.17;;;0.60;;
77544;SDS011;66672;50.328;7.610;2023-05-10T10:57:53;0.98;;;0.32;;
77544;SDS011;66672;50.328;7.610;2023-05-10T11:00:24;1.20;;;0.40;;
77544;SDS011;66672;50.328;7.610;2023-05-10T11:03:32;1.67;;;0.40;;
77544;SDS011;66672;50.328;7.610;2023-05-10T11:05:49;0.75;;;0.35;;
77544;SDS011;66672;50.328;7.610;2023-05-10T11:08:15;0.85;;;0.50;;
77544;SDS011;66672;50.328;7.610;2023-05-10T11:10:49;2.45;;;0.50;;
77544;SDS011;66672;50.328;7.610;2023-05-10T11:13:16;1.42;;;0.50;;
77544;SDS011;66672;50.328;7.610;2023-05-10T11:15:51;1.95;;;0.40;;
77544;SDS011;66672;50.328;7.610;2023-05-10T11:18:17;0.95;;;0.30;;
77544;SDS011;66672;50.328;7.610;2023-05-10T11:20:43;2.45;;;0.50;;
77544;SDS011;66672;50.328;7.610;2023-05-10T11:23:13;2.35;;;0.47;;
77544;SDS011;66672;50.328;7.610;2023-05-10T11:25:44;0.88;;;0.50;;
77544;SDS011;66672;50.328;7.610;2023-05-10T11:28:10;1.33;;;0.60;;
77544;SDS011;66672;50.328;7.610;2023-05-10T11:30:36;1.48;;;0.50;;
77544;SDS011;66672;50.328;7.610;2023-05-10T11:33:02;1.52;;;0.40;;
77544;SDS011;66672;50.328;7.610;2023-05-10T11:35:28;2.60;;;0.60;;
77544;SDS011;66672;50.328;7.610;2023-05-10T11:37:53;2.35;;;0.28;;
77544;SDS011;66672;50.328;7.610;2023-05-10T11:40:18;0.82;;;0.30;;
77544;SDS011;66672;50.328;7.610;2023-05-10T11:42:44;0.70;;;0.40;;
77544;SDS011;66672;50.328;7.610;2023-05-10T11:45:09;0.70;;;0.30;;
77544;SDS011;66672;50.328;7.610;2023-05-10T11:47:35;2.05;;;0.40;;
77544;SDS011;66672;50.328;7.610;2023-05-10T11:50:01;1.65;;;0.50;;
77544;SDS011;66672;50.328;7.610;2023-05-10T11:52:27;1.08;;;0.40;;
77544;SDS011;66672;50.328;7.610;2023-05-10T11:54:52;0.80;;;0.30;;
77544;SDS011;66672;50.328;7.610;2023-05-10T11:57:18;0.43;;;0.30;;
77544;SDS011;66672;50.328;7.610;2023-05-10T11:59:45;1.23;;;0.43;;
77544;SDS011;66672;50.328;7.610;2023-05-10T12:02:10;0.50;;;0.30;;
77544;SDS011;66672;50.328;7.610;2023-05-10T12:04:36;2.03;;;0.57;;
77544;SDS011;66672;50.328;7.610;2023-05-10T12:07:01;1.90;;;0.40;;
77544;SDS011;66672;50.328;7.610;2023-05-10T12:09:27;2.45;;;0.70;;
77544;SDS011;66672;50.328;7.610;2023-05-10T12:11:54;1.25;;;0.50;;
77544;SDS011;66672;50.328;7.610;2023-05-10T12:14:21;0.98;;;0.50;;
77544;SDS011;66672;50.328;7.610;2023-05-10T12:16:46;1.50;;;0.50;;
77544;SDS011;66672;50.328;7.610;2023-05-10T12:19:12;1.95;;;0.52;;
77544;SDS011;66672;50.328;7.610;2023-05-10T12:21:42;0.73;;;0.40;;
77544;SDS011;66672;50.328;7.610;2023-05-10T12:24:08;3.05;;;0.50;;
77544;SDS011;66672;50.328;7.610;2023-05-10T12:26:35;0.95;;;0.50;;
77544;SDS011;66672;50.328;7.610;2023-05-10T12:29:14;0.93;;;0.50;;
77544;SDS011;66672;50.328;7.610;2023-05-10T12:31:57;1.25;;;0.57;;
77544;SDS011;66672;50.328;7.610;2023-05-10T12:34:32;1.25;;;0.50;;
77544;SDS011;66672;50.328;7.610;2023-05-10T12:36:58;0.65;;;0.50;;
77544;SDS011;66672;50.328;7.610;2023-05-10T12:39:23;0.95;;;0.50;;
77544;SDS011;66672;50.328;7.610;2023-05-10T12:41:49;1.75;;;0.50;;
77544;SDS011;66672;50.328;7.610;2023-05-10T12:44:21;0.88;;;0.55;;
77544;SDS011;66672;50.328;7.610;2023-05-10T12:46:46;1.55;;;0.63;;
77544;SDS011;66672;50.328;7.610;2023-05-10T12:49:12;1.77;;;0.50;;
77544;SDS011;66672;50.328;7.610;2023-05-10T12:51:37;1.00;;;0.50;;
77544;SDS011;66672;50.328;7.610;2023-05-10T12:54:02;3.35;;;0.65;;
77544;SDS011;66672;50.328;7.610;2023-05-10T12:56:28;1.05;;;0.43;;
77544;SDS011;66672;50.328;7.610;2023-05-10T12:58:53;1.65;;;0.65;;
77544;SDS011;66672;50.328;7.610;2023-05-10T13:01:18;2.45;;;0.70;;
77544;SDS011;66672;50.328;7.610;2023-05-10T13:03:44;1.75;;;0.60;;
77544;SDS011;66672;50.328;7.610;2023-05-10T13:06:10;1.17;;;0.60;;
77544;SDS011;66672;50.328;7.610;2023-05-10T13:08:36;1.92;;;0.57;;
77544;SDS011;66672;50.328;7.610;2023-05-10T13:11:02;3.50;;;0.60;;
77544;SDS011;66672;50.328;7.610;2023-05-10T13:13:27;0.55;;;0.40;;
77544;SDS011;66672;50.328;7.610;2023-05-10T13:15:52;1.40;;;0.57;;
77544;SDS011;66672;50.328;7.610;2023-05-10T13:18:17;1.27;;;0.45;;
77544;SDS011;66672;50.328;7.610;2023-05-10T13:20:43;2.08;;;0.52;;
77544;SDS011;66672;50.328;7.610;2023-05-10T13:23:09;1.75;;;0.47;;
77544;SDS011;66672;50.328;7.610;2023-05-10T13:25:34;0.77;;;0.40;;
77544;SDS011;66672;50.328;7.610;2023-05-10T13:28:00;0.40;;;0.30;;
77544;SDS011;66672;50.328;7.610;2023-05-10T13:30:25;2.92;;;0.50;;
77544;SDS011;66672;50.328;7.610;2023-05-10T13:32:50;1.42;;;0.50;;
77544;SDS011;66672;50.328;7.610;2023-05-10T13:35:15;0.45;;;0.30;;
77544;SDS011;66672;50.328;7.610;2023-05-10T13:37:41;0.52;;;0.30;;
77544;SDS011;66672;50.328;7.610;2023-05-10T13:40:06;0.80;;;0.32;;
77544;SDS011;66672;50.328;7.610;2023-05-10T13:42:31;1.88;;;0.40;;
77544;SDS011;66672;50.328;7.610;2023-05-10T13:44:58;1.08;;;0.40;;
77544;SDS011;66672;50.328;7.610;2023-05-10T13:47:23;1.02;;;0.50;;
77544;SDS011;66672;50.328;7.610;2023-05-10T13:49:49;1.25;;;0.60;;
77544;SDS011;66672;50.328;7.610;2023-05-10T13:52:14;1.80;;;0.47;;
77544;SDS011;66672;50.328;7.610;2023-05-10T13:54:39;0.73;;;0.52;;
77544;SDS011;66672;50.328;7.610;2023-05-10T13:57:04;1.48;;;0.40;;
77544;SDS011;66672;50.328;7.610;2023-05-10T13:59:30;1.38;;;0.55;;
77544;SDS011;66672;50.328;7.610;2023-05-10T14:01:56;2.05;;;0.70;;
77544;SDS011;66672;50.328;7.610;2023-05-10T14:04:21;3.88;;;0.60;;
77544;SDS011;66672;50.328;7.610;2023-05-10T14:06:47;3.95;;;0.70;;
77544;SDS011;66672;50.328;7.610;2023-05-10T14:09:12;1.50;;;0.73;;
77544;SDS011;66672;50.328;7.610;2023-05-10T14:11:37;1.63;;;0.52;;
77544;SDS011;66672;50.328;7.610;2023-05-10T14:14:06;1.55;;;0.40;;
77544;SDS011;66672;50.328;7.610;2023-05-10T14:16:32;2.50;;;0.50;;
77544;SDS011;66672;50.328;7.610;2023-05-10T14:18:57;1.50;;;0.55;;
77544;SDS011;66672;50.328;7.610;2023-05-10T14:21:22;1.27;;;0.50;;
77544;SDS011;66672;50.328;7.610;2023-05-10T14:23:48;1.52;;;0.60;;
77544;SDS011;66672;50.328;7.610;2023-05-10T14:26:13;0.98;;;0.40;;
77544;SDS011;66672;50.328;7.610;2023-05-10T14:28:38;1.58;;;0.50;;
77544;SDS011;66672;50.328;7.610;2023-05-10T14:31:03;0.80;;;0.47;;
77544;SDS011;66672;50.328;7.610;2023-05-10T14:33:30;0.50;;;0.30;;
77544;SDS011;66672;50.328;7.610;2023-05-10T14:35:55;1.20;;;0.50;;
77544;SDS011;66672;50.328;7.610;2023-05-10T14:38:22;0.77;;;0.40;;
77544;SDS011;66672;50.328;7.610;2023-05-10T14:40:47;1.58;;;0.60;;
77544;SDS011;66672;50.328;7.610;2023-05-10T14:43:12;1.40;;;0.50;;
77544;SDS011;66672;50.328;7.610;2023-05-10T14:45:37;3.67;;;0.70;;
77544;SDS011;66672;50.328;7.610;2023-05-10T14:48:02;2.30;;;1.02;;
77544;SDS011;66672;50.328;7.610;2023-05-10T14:50:29;2.42;;;0.70;;
77544;SDS011;66672;50.328;7.610;2023-05-10T14:52:55;1.88;;;0.77;;
77544;SDS011;66672;50.328;7.610;2023-05-10T14:55:20;3.60;;;0.90;;
77544;SDS011;66672;50.328;7.610;2023-05-10T14:57:45;4.25;;;1.30;;
77544;SDS011;66672;50.328;7.610;2023-05-10T15:00:12;4.22;;;1.10;;
77544;SDS011;66672;50.328;7.610;2023-05-10T15:02:37;1.67;;;0.73;;
77544;SDS011;66672;50.328;7.610;2023-05-10T15:05:02;2.60;;;0.82;;